Time;durP1;ratioP1;P1;durP2;ratioP2;P2;SDS_P1;SDS_P2;PMS_P1;PMS_P2;Temp;Humidity;BMP_temperature;BMP_pressure;BME280_temperature;BME280_humidity;BME280_pressure;Samples;Min_cycle;Max_cycle;Signal;HPM_P1;HPM_P2
2021/12/18 00:01:51;;;;;;;10.27;7.32;;;;;;;;;;5022755;28;20026;-77
2021/12/18 00:04:17;;;;;;;10.68;7.50;;;;;;;;;;5021992;28;20025;-78
2021/12/18 00:06:43;;;;;;;10.10;7.05;;;;;;;;;;5022492;28;20030;-78
2021/12/18 00:09:09;;;;;;;9.20;7.30;;;;;;;;;;5022162;28;20029;-78
2021/12/18 00:11:35;;;;;;;10.27;7.03;;;;;;;;;;5022373;28;20049;-77
2021/12/18 00:14:01;;;;;;;10.10;7.10;;;;;;;;;;5021717;28;20043;-78
2021/12/18 00:16:27;;;;;;;10.65;7.45;;;;;;;;;;5022136;28;20502;-77
2021/12/18 00:18:55;;;;;;;9.48;6.28;;;;;;;;;;5024665;28;20360;-78
2021/12/18 00:21:21;;;;;;;12.30;7.25;;;;;;;;;;5018927;28;20109;-77
2021/12/18 00:23:48;;;;;;;12.48;7.97;;;;;;;;;;5003619;28;20022;-77
2021/12/18 00:26:14;;;;;;;15.82;8.40;;;;;;;;;;5022090;28;20033;-75
2021/12/18 00:28:40;;;;;;;12.27;8.55;;;;;;;;;;5039108;28;20016;-75
2021/12/18 00:31:06;;;;;;;10.50;7.63;;;;;;;;;;5038774;28;20030;-76
2021/12/18 00:33:32;;;;;;;10.63;7.53;;;;;;;;;;5038840;28;20038;-77
2021/12/18 00:35:58;;;;;;;9.85;7.22;;;;;;;;;;5035084;28;20037;-77
2021/12/18 00:38:29;;;;;;;9.98;7.32;;;;;;;;;;5022599;28;20086;-76
2021/12/18 00:43:34;;;;;;;9.50;6.03;;;;;;;;;;5021093;28;20073;-78
2021/12/18 00:46:00;;;;;;;7.03;5.50;;;;;;;;;;5020146;28;20448;-78
2021/12/18 00:48:26;;;;;;;5.93;4.35;;;;;;;;;;5020957;28;20100;-78
2021/12/18 00:50:53;;;;;;;5.50;3.55;;;;;;;;;;5026585;28;20422;-77
2021/12/18 00:53:19;;;;;;;4.90;3.70;;;;;;;;;;5011543;28;20389;-77
2021/12/18 00:55:45;;;;;;;4.25;3.33;;;;;;;;;;5010010;28;20133;-75
2021/12/18 00:58:12;;;;;;;4.38;3.10;;;;;;;;;;5001639;28;20026;-76
2021/12/18 01:00:40;;;;;;;5.60;2.85;;;;;;;;;;5018858;28;20025;-78
2021/12/18 01:03:14;;;;;;;5.28;3.33;;;;;;;;;;5018153;28;20022;-77
2021/12/18 01:05:40;;;;;;;7.05;3.60;;;;;;;;;;5016678;28;20045;-79
2021/12/18 01:08:06;;;;;;;5.80;4.30;;;;;;;;;;5017562;28;20037;-77
2021/12/18 01:13:22;;;;;;;6.55;4.72;;;;;;;;;;5015751;28;20049;-74
2021/12/18 01:15:54;;;;;;;7.32;5.13;;;;;;;;;;5015388;28;20076;-75
2021/12/18 01:23:50;;;;;;;16.17;9.50;;;;;;;;;;5015755;28;19956;-75
2021/12/18 01:26:17;;;;;;;14.85;9.10;;;;;;;;;;5015426;28;20026;-74
2021/12/18 01:28:43;;;;;;;24.55;12.85;;;;;;;;;;5015814;28;20030;-74
2021/12/18 01:31:09;;;;;;;28.95;14.70;;;;;;;;;;5015463;28;20037;-75
2021/12/18 01:33:35;;;;;;;38.33;17.00;;;;;;;;;;5015623;28;20487;-75
2021/12/18 01:36:01;;;;;;;35.65;16.95;;;;;;;;;;5019184;28;20022;-73
2021/12/18 01:38:31;;;;;;;34.28;16.35;;;;;;;;;;5022676;28;20494;-74
2021/12/18 01:40:59;;;;;;;32.88;15.98;;;;;;;;;;5017464;28;20101;-75
2021/12/18 01:54:11;;;;;;;21.98;10.35;;;;;;;;;;5014738;28;20111;-75
2021/12/18 01:56:37;;;;;;;19.23;8.50;;;;;;;;;;5013930;28;20026;-75
2021/12/18 01:59:03;;;;;;;17.20;7.78;;;;;;;;;;5014169;28;20026;-74
2021/12/18 02:01:29;;;;;;;17.70;7.88;;;;;;;;;;5014362;28;20033;-75
2021/12/18 02:03:55;;;;;;;18.80;8.10;;;;;;;;;;5014350;28;20101;-76
2021/12/18 02:06:22;;;;;;;17.02;7.53;;;;;;;;;;5014258;28;20037;-75
2021/12/18 02:08:48;;;;;;;14.45;6.97;;;;;;;;;;5016502;28;20033;-76
2021/12/18 02:19:49;;;;;;;16.20;7.00;;;;;;;;;;5014306;28;19919;-74
2021/12/18 02:22:16;;;;;;;18.38;7.35;;;;;;;;;;5015708;28;20657;-73
2021/12/18 02:24:42;;;;;;;18.13;7.80;;;;;;;;;;5018409;28;20036;-76
2021/12/18 02:27:08;;;;;;;19.65;8.68;;;;;;;;;;5014308;28;20018;-76
2021/12/18 02:29:37;;;;;;;17.02;8.13;;;;;;;;;;5014571;28;20030;-76
2021/12/18 02:32:03;;;;;;;19.65;8.70;;;;;;;;;;5017231;28;20029;-74
2021/12/18 02:34:31;;;;;;;17.85;8.73;;;;;;;;;;5014011;28;20030;-75
2021/12/18 02:37:07;;;;;;;17.45;7.78;;;;;;;;;;5014998;28;20014;-74
2021/12/18 02:40:45;;;;;;;17.08;7.97;;;;;;;;;;5013712;28;20014;-75
2021/12/18 02:42:32;;;;;;;13.23;6.95;;;;;;;;;;5012952;28;20053;-76
2021/12/18 02:44:58;;;;;;;14.15;7.15;;;;;;;;;;5015811;28;20506;-78
2021/12/18 02:47:24;;;;;;;15.40;6.82;;;;;;;;;;4998628;28;20061;-78
2021/12/18 02:49:51;;;;;;;16.75;8.02;;;;;;;;;;5015801;28;20030;-78
2021/12/18 02:52:19;;;;;;;16.67;8.20;;;;;;;;;;5015794;28;20028;-78
2021/12/18 02:54:45;;;;;;;15.57;7.47;;;;;;;;;;5015775;28;20022;-77
2021/12/18 02:57:11;;;;;;;16.10;7.55;;;;;;;;;;4998463;28;20034;-78
2021/12/18 02:59:48;;;;;;;14.43;8.00;;;;;;;;;;5016452;28;20022;-78
2021/12/18 03:02:15;;;;;;;17.50;8.32;;;;;;;;;;5016503;28;20029;-78
2021/12/18 03:04:44;;;;;;;15.73;8.25;;;;;;;;;;5016701;28;20018;-78
2021/12/18 03:07:13;;;;;;;18.17;8.63;;;;;;;;;;5016245;28;20022;-78
2021/12/18 03:23:40;;;;;;;19.55;9.18;;;;;;;;;;4998074;28;20083;-75
2021/12/18 03:26:06;;;;;;;15.25;8.20;;;;;;;;;;5013691;28;20049;-76
2021/12/18 03:28:32;;;;;;;13.90;7.90;;;;;;;;;;4995957;28;20467;-76
2021/12/18 03:30:58;;;;;;;15.10;7.47;;;;;;;;;;5014761;28;20503;-76
2021/12/18 03:33:26;;;;;;;15.15;7.10;;;;;;;;;;5013231;28;20018;-76
2021/12/18 03:35:52;;;;;;;14.68;7.38;;;;;;;;;;5014606;28;20428;-75
2021/12/18 03:38:18;;;;;;;14.32;6.30;;;;;;;;;;5013530;28;20033;-75
2021/12/18 03:40:44;;;;;;;14.23;7.10;;;;;;;;;;5013096;28;20026;-76
2021/12/18 03:43:10;;;;;;;15.80;7.85;;;;;;;;;;4995547;28;20088;-77
2021/12/18 03:45:36;;;;;;;18.10;8.38;;;;;;;;;;5013050;28;20101;-76
2021/12/18 03:48:02;;;;;;;16.55;7.97;;;;;;;;;;5013489;28;20022;-75
2021/12/18 03:50:28;;;;;;;18.35;8.73;;;;;;;;;;5013200;28;20433;-77
2021/12/18 03:52:55;;;;;;;17.27;8.35;;;;;;;;;;5013248;28;20097;-77
2021/12/18 03:55:21;;;;;;;15.73;7.88;;;;;;;;;;4995205;28;20119;-78
2021/12/18 03:57:47;;;;;;;15.20;6.47;;;;;;;;;;5013449;28;20018;-77
2021/12/18 04:00:15;;;;;;;10.18;4.97;;;;;;;;;;5013295;28;20056;-76
2021/12/18 04:02:41;;;;;;;9.60;4.43;;;;;;;;;;5013342;28;20033;-76
2021/12/18 04:05:08;;;;;;;10.65;5.88;;;;;;;;;;5013876;28;20029;-75
2021/12/18 04:07:41;;;;;;;8.38;4.57;;;;;;;;;;5013941;28;20041;-75
2021/12/18 04:10:07;;;;;;;8.98;5.40;;;;;;;;;;5016612;28;20025;-75
2021/12/18 04:12:33;;;;;;;11.50;6.72;;;;;;;;;;5015797;28;20061;-77
2021/12/18 04:14:59;;;;;;;14.07;7.68;;;;;;;;;;5014113;28;20041;-77
2021/12/18 04:17:25;;;;;;;15.20;7.72;;;;;;;;;;5013950;28;20062;-76
2021/12/18 04:19:51;;;;;;;14.77;8.48;;;;;;;;;;5015654;28;20092;-75
2021/12/18 04:22:17;;;;;;;15.73;9.93;;;;;;;;;;5001997;28;20030;-77
2021/12/18 04:24:43;;;;;;;16.77;9.95;;;;;;;;;;4995889;28;20022;-76
2021/12/18 04:27:09;;;;;;;16.73;9.50;;;;;;;;;;5014057;28;20395;-76
2021/12/18 04:29:35;;;;;;;12.10;7.78;;;;;;;;;;5013805;28;20030;-75
2021/12/18 04:32:01;;;;;;;13.07;6.75;;;;;;;;;;5013363;28;20093;-75
2021/12/18 04:34:29;;;;;;;9.95;5.22;;;;;;;;;;5012558;28;20028;-77
2021/12/18 04:36:55;;;;;;;8.48;5.03;;;;;;;;;;4994471;28;20024;-75
2021/12/18 04:39:21;;;;;;;9.15;4.82;;;;;;;;;;5012478;28;20538;-76
2021/12/18 04:41:50;;;;;;;6.70;4.10;;;;;;;;;;5013619;28;20025;-77
2021/12/18 04:44:17;;;;;;;7.75;4.28;;;;;;;;;;5003112;28;20114;-77
2021/12/18 04:46:43;;;;;;;5.78;3.80;;;;;;;;;;5021639;28;20046;-74
2021/12/18 04:49:09;;;;;;;8.32;4.30;;;;;;;;;;5019213;28;20403;-76
2021/12/18 04:51:35;;;;;;;7.70;5.10;;;;;;;;;;4999940;28;20064;-76
2021/12/18 04:54:01;;;;;;;9.95;5.95;;;;;;;;;;5016538;28;20030;-76
2021/12/18 04:56:27;;;;;;;11.27;6.32;;;;;;;;;;5018975;28;20033;-77
2021/12/18 04:58:53;;;;;;;10.13;5.60;;;;;;;;;;5008239;28;20022;-77
2021/12/18 05:01:19;;;;;;;8.98;5.28;;;;;;;;;;5023304;28;20131;-78
2021/12/18 05:03:46;;;;;;;8.68;5.47;;;;;;;;;;5019505;28;20034;-75
2021/12/18 05:06:12;;;;;;;8.25;4.57;;;;;;;;;;5018985;28;20052;-77
2021/12/18 05:08:38;;;;;;;6.47;4.05;;;;;;;;;;5023275;28;20109;-76
2021/12/18 05:11:04;;;;;;;7.68;3.63;;;;;;;;;;5023271;28;20034;-77
2021/12/18 05:13:30;;;;;;;5.35;2.90;;;;;;;;;;5015795;28;20441;-75
2021/12/18 05:15:56;;;;;;;4.97;2.88;;;;;;;;;;5015754;28;20030;-76
2021/12/18 05:18:22;;;;;;;4.45;2.40;;;;;;;;;;5015945;28;20029;-77
2021/12/18 05:20:48;;;;;;;4.60;2.65;;;;;;;;;;5015684;28;20030;-76
2021/12/18 05:23:14;;;;;;;2.83;2.00;;;;;;;;;;5015671;28;20431;-76
2021/12/18 05:25:40;;;;;;;3.08;1.80;;;;;;;;;;5015793;28;20117;-76
2021/12/18 05:28:06;;;;;;;5.00;2.10;;;;;;;;;;5016865;28;20030;-77
2021/12/18 05:30:32;;;;;;;4.30;1.45;;;;;;;;;;5015864;28;20026;-76
2021/12/18 05:32:58;;;;;;;2.88;1.52;;;;;;;;;;5015842;28;20049;-77
2021/12/18 05:35:24;;;;;;;5.43;3.67;;;;;;;;;;4997910;28;20026;-77
2021/12/18 05:37:53;;;;;;;7.95;3.88;;;;;;;;;;5015396;28;20439;-76
2021/12/18 05:40:20;;;;;;;7.70;4.80;;;;;;;;;;5001391;28;20034;-76
2021/12/18 05:42:47;;;;;;;9.60;5.38;;;;;;;;;;5017155;28;20025;-76
2021/12/18 05:45:14;;;;;;;8.75;4.72;;;;;;;;;;5015747;28;20057;-78
2021/12/18 05:47:40;;;;;;;7.20;4.60;;;;;;;;;;5037899;28;20430;-78
2021/12/18 05:50:07;;;;;;;5.80;4.20;;;;;;;;;;5034463;28;20030;-75
2021/12/18 05:52:33;;;;;;;5.55;3.75;;;;;;;;;;5034188;28;20022;-74
2021/12/18 05:54:59;;;;;;;6.55;4.72;;;;;;;;;;5029348;28;20022;-76
2021/12/18 05:57:25;;;;;;;5.47;4.35;;;;;;;;;;5034986;28;20033;-78
2021/12/18 05:59:51;;;;;;;7.03;4.07;;;;;;;;;;5036598;28;20038;-78
2021/12/18 06:02:17;;;;;;;3.92;2.80;;;;;;;;;;5035579;28;20049;-77
2021/12/18 06:04:43;;;;;;;2.63;2.30;;;;;;;;;;5016908;28;20026;-76
2021/12/18 06:07:17;;;;;;;1.73;1.40;;;;;;;;;;5034194;28;20077;-76
2021/12/18 06:09:43;;;;;;;1.87;1.30;;;;;;;;;;5034052;28;20033;-79
2021/12/18 06:12:09;;;;;;;1.52;0.85;;;;;;;;;;5020473;28;20281;-78
2021/12/18 06:14:35;;;;;;;1.48;0.93;;;;;;;;;;5037045;28;20028;-77
2021/12/18 06:17:01;;;;;;;1.45;1.20;;;;;;;;;;5018414;28;20026;-77
2021/12/18 06:19:27;;;;;;;2.55;1.38;;;;;;;;;;5034678;28;20026;-77
2021/12/18 06:21:53;;;;;;;4.82;1.77;;;;;;;;;;5034314;28;20061;-78
2021/12/18 06:24:19;;;;;;;1.92;1.50;;;;;;;;;;5022311;28;20029;-76
2021/12/18 06:26:45;;;;;;;3.80;1.58;;;;;;;;;;5017152;28;20026;-77
2021/12/18 06:29:12;;;;;;;5.35;2.03;;;;;;;;;;5019500;28;20387;-77
2021/12/18 06:31:39;;;;;;;2.00;1.60;;;;;;;;;;5017234;28;20091;-77
2021/12/18 06:34:05;;;;;;;2.97;2.20;;;;;;;;;;5017925;28;20025;-78
2021/12/18 06:36:31;;;;;;;6.47;1.95;;;;;;;;;;5016545;28;20040;-75
2021/12/18 06:38:57;;;;;;;4.55;2.35;;;;;;;;;;5023705;28;20021;-77
2021/12/18 06:41:23;;;;;;;6.18;3.30;;;;;;;;;;5036523;28;20088;-77
2021/12/18 06:43:49;;;;;;;5.40;2.83;;;;;;;;;;5036193;28;20018;-79
2021/12/18 06:46:15;;;;;;;2.78;2.17;;;;;;;;;;5034875;28;20070;-78
2021/12/18 06:48:41;;;;;;;4.78;2.50;;;;;;;;;;5031932;28;20030;-77
2021/12/18 06:51:07;;;;;;;3.70;2.30;;;;;;;;;;5031260;28;20093;-78
2021/12/18 06:53:33;;;;;;;6.00;3.38;;;;;;;;;;5031640;28;20046;-76
2021/12/18 06:55:59;;;;;;;12.63;3.25;;;;;;;;;;5030879;28;20032;-78
2021/12/18 06:58:25;;;;;;;6.93;4.07;;;;;;;;;;5015459;28;20026;-76
2021/12/18 07:00:53;;;;;;;8.43;3.65;;;;;;;;;;5032691;28;20049;-77
2021/12/18 07:03:19;;;;;;;9.23;4.75;;;;;;;;;;5032035;28;20113;-77
2021/12/18 07:05:45;;;;;;;9.95;5.45;;;;;;;;;;5031274;28;20045;-77
2021/12/18 07:08:11;;;;;;;13.00;6.30;;;;;;;;;;5028537;28;20082;-75
2021/12/18 07:10:37;;;;;;;11.07;7.40;;;;;;;;;;5046805;22;20037;-79
2021/12/18 07:13:03;;;;;;;10.15;6.63;;;;;;;;;;5021129;28;20036;-78
2021/12/18 07:15:29;;;;;;;11.93;7.05;;;;;;;;;;5026096;28;20025;-79
2021/12/18 07:17:55;;;;;;;12.70;7.32;;;;;;;;;;5019037;28;20080;-79
2021/12/18 07:20:21;;;;;;;11.43;6.35;;;;;;;;;;5020703;28;20034;-79
2021/12/18 07:22:47;;;;;;;12.55;6.18;;;;;;;;;;5003907;28;20033;-79
2021/12/18 07:25:14;;;;;;;9.20;5.82;;;;;;;;;;5019980;28;20030;-79
2021/12/18 07:27:40;;;;;;;9.35;5.30;;;;;;;;;;5021983;28;20129;-79
2021/12/18 07:30:06;;;;;;;8.88;5.38;;;;;;;;;;5019611;28;20065;-79
2021/12/18 07:32:32;;;;;;;8.60;5.32;;;;;;;;;;5026433;28;20026;-79
2021/12/18 07:34:58;;;;;;;8.73;4.90;;;;;;;;;;5036087;28;20045;-78
2021/12/18 07:37:25;;;;;;;10.13;5.18;;;;;;;;;;5024967;28;20041;-77
2021/12/18 07:39:51;;;;;;;9.18;4.72;;;;;;;;;;5016942;28;20021;-78
2021/12/18 07:42:17;;;;;;;20.45;9.60;;;;;;;;;;5036562;28;20025;-78
2021/12/18 07:44:43;;;;;;;11.35;5.18;;;;;;;;;;5034829;28;20085;-78
2021/12/18 07:47:09;;;;;;;13.57;5.25;;;;;;;;;;5031787;28;20033;-80
2021/12/18 07:49:35;;;;;;;9.68;4.55;;;;;;;;;;5034747;28;20085;-78
2021/12/18 07:52:04;;;;;;;7.68;4.40;;;;;;;;;;5032611;28;20034;-79
2021/12/18 07:54:30;;;;;;;9.15;4.30;;;;;;;;;;5029450;28;20037;-80
2021/12/18 07:56:56;;;;;;;6.78;3.42;;;;;;;;;;5021309;28;20036;-78
2021/12/18 07:59:22;;;;;;;7.35;3.60;;;;;;;;;;5020389;28;20453;-80
2021/12/18 08:01:48;;;;;;;5.43;3.17;;;;;;;;;;5022647;28;20085;-79
2021/12/18 08:04:14;;;;;;;5.35;2.10;;;;;;;;;;5024808;28;20032;-79
2021/12/18 08:06:40;;;;;;;4.22;1.98;;;;;;;;;;5024906;28;20022;-80
2021/12/18 08:09:06;;;;;;;3.40;1.48;;;;;;;;;;5024133;28;20052;-79
2021/12/18 08:11:32;;;;;;;1.42;0.88;;;;;;;;;;5025644;28;20483;-78
2021/12/18 08:13:58;;;;;;;2.17;0.88;;;;;;;;;;5024971;28;20029;-78
2021/12/18 08:16:24;;;;;;;3.28;0.80;;;;;;;;;;5021412;28;20464;-79
2021/12/18 08:18:50;;;;;;;2.72;1.50;;;;;;;;;;5021811;28;20371;-80
2021/12/18 08:21:16;;;;;;;1.30;1.10;;;;;;;;;;5024747;28;20081;-79
2021/12/18 08:23:42;;;;;;;1.83;0.90;;;;;;;;;;5024195;28;20030;-79
2021/12/18 08:26:07;;;;;;;0.95;0.70;;;;;;;;;;5024214;28;20395;-78
2021/12/18 08:28:34;;;;;;;0.80;0.80;;;;;;;;;;5010743;28;20026;-78
2021/12/18 08:31:00;;;;;;;1.40;0.90;;;;;;;;;;5039393;28;20030;-79
2021/12/18 08:33:26;;;;;;;1.38;0.77;;;;;;;;;;5032610;28;20036;-80
2021/12/18 08:35:52;;;;;;;3.78;0.90;;;;;;;;;;5007422;28;20113;-81
2021/12/18 08:38:17;;;;;;;2.35;1.13;;;;;;;;;;5023841;28;20018;-81
2021/12/18 08:40:44;;;;;;;4.20;1.60;;;;;;;;;;5022027;28;20030;-79
2021/12/18 08:43:10;;;;;;;4.03;1.85;;;;;;;;;;5023382;28;20026;-79
2021/12/18 08:45:36;;;;;;;5.15;1.83;;;;;;;;;;5023931;28;20124;-79
2021/12/18 08:48:02;;;;;;;3.75;1.65;;;;;;;;;;5019552;28;20030;-77
2021/12/18 08:50:28;;;;;;;3.38;1.60;;;;;;;;;;5017622;28;20487;-76
2021/12/18 08:52:54;;;;;;;2.97;1.80;;;;;;;;;;5021298;28;20043;-80
2021/12/18 08:55:21;;;;;;;3.60;2.00;;;;;;;;;;5025831;28;20088;-80
2021/12/18 08:57:48;;;;;;;2.47;1.40;;;;;;;;;;5025889;28;20336;-78
2021/12/18 09:00:16;;;;;;;2.35;1.02;;;;;;;;;;5019856;28;20514;-78
2021/12/18 09:02:43;;;;;;;1.38;0.85;;;;;;;;;;5019546;28;20026;-78
2021/12/18 09:05:09;;;;;;;0.90;0.80;;;;;;;;;;5019457;28;20034;-77
2021/12/18 09:07:35;;;;;;;1.42;0.80;;;;;;;;;;5002237;28;20032;-76
2021/12/18 09:10:02;;;;;;;0.93;0.70;;;;;;;;;;5020115;28;20402;-78
2021/12/18 09:12:28;;;;;;;1.00;0.77;;;;;;;;;;5035299;28;20030;-79
2021/12/18 09:14:54;;;;;;;1.23;0.77;;;;;;;;;;5039439;28;20018;-78
2021/12/18 09:17:20;;;;;;;1.17;0.80;;;;;;;;;;5014985;28;20042;-79
2021/12/18 09:19:46;;;;;;;0.57;0.57;;;;;;;;;;5033611;28;20033;-79
2021/12/18 09:22:12;;;;;;;0.63;0.60;;;;;;;;;;5009133;28;20026;-81
2021/12/18 09:24:38;;;;;;;0.70;0.70;;;;;;;;;;5025430;28;20467;-77
2021/12/18 09:27:05;;;;;;;1.67;0.80;;;;;;;;;;5028378;28;20092;-79
2021/12/18 09:29:31;;;;;;;2.15;1.13;;;;;;;;;;5032738;28;20467;-78
2021/12/18 09:31:57;;;;;;;2.03;1.30;;;;;;;;;;5029533;28;20034;-79
2021/12/18 09:34:26;;;;;;;2.88;1.27;;;;;;;;;;5026748;28;20026;-79
2021/12/18 09:36:52;;;;;;;3.38;2.00;;;;;;;;;;5026161;28;20018;-78
2021/12/18 09:39:18;;;;;;;3.35;1.50;;;;;;;;;;5023978;28;20029;-80
2021/12/18 09:41:47;;;;;;;6.45;2.80;;;;;;;;;;5027585;28;20048;-82
2021/12/18 09:44:13;;;;;;;5.22;1.88;;;;;;;;;;5007415;28;20125;-81
2021/12/18 09:46:39;;;;;;;6.53;1.80;;;;;;;;;;5006893;28;20048;-78
2021/12/18 09:49:05;;;;;;;5.15;2.35;;;;;;;;;;5028586;28;20479;-79
2021/12/18 09:51:32;;;;;;;4.55;2.30;;;;;;;;;;5024190;28;20050;-81
2021/12/18 09:53:58;;;;;;;6.95;2.40;;;;;;;;;;5005775;28;20022;-79
2021/12/18 09:56:25;;;;;;;5.78;2.80;;;;;;;;;;5022809;28;20451;-80
2021/12/18 09:58:52;;;;;;;13.20;3.38;;;;;;;;;;5024043;28;20037;-80
2021/12/18 10:01:18;;;;;;;10.32;3.70;;;;;;;;;;5009009;28;20045;-77
2021/12/18 10:03:45;;;;;;;9.35;3.35;;;;;;;;;;5030350;28;20155;-79
2021/12/18 10:06:34;;;;;;;12.05;3.88;;;;;;;;;;5014561;28;20038;-78
2021/12/18 10:09:12;;;;;;;8.63;3.60;;;;;;;;;;5036651;28;20018;-79
2021/12/18 10:11:46;;;;;;;11.55;4.38;;;;;;;;;;5037799;28;20042;-79
2021/12/18 10:14:12;;;;;;;13.93;5.37;;;;;;;;;;5028253;28;20082;-80
2021/12/18 10:16:44;;;;;;;26.30;7.45;;;;;;;;;;5024683;28;20521;-78
2021/12/18 10:19:22;;;;;;;16.95;7.00;;;;;;;;;;5025335;28;20027;-79
2021/12/18 10:21:54;;;;;;;21.02;7.90;;;;;;;;;;5028101;28;20022;-80
2021/12/18 10:24:20;;;;;;;24.13;8.57;;;;;;;;;;5027072;28;20026;-82
2021/12/18 10:26:46;;;;;;;38.65;13.07;;;;;;;;;;5023460;28;20422;-79
2021/12/18 10:29:30;;;;;;;21.85;9.02;;;;;;;;;;5021972;28;20026;-78
2021/12/18 10:31:56;;;;;;;28.15;10.95;;;;;;;;;;5024244;28;20107;-80
2021/12/18 10:34:24;;;;;;;30.75;11.63;;;;;;;;;;5022826;28;20029;-79
2021/12/18 10:37:08;;;;;;;21.17;9.38;;;;;;;;;;5025667;28;20032;-79
2021/12/18 10:39:36;;;;;;;34.25;10.98;;;;;;;;;;5006582;28;20113;-81
2021/12/18 10:42:15;;;;;;;29.52;9.63;;;;;;;;;;5006166;28;20136;-79
2021/12/18 10:45:03;;;;;;;27.92;10.20;;;;;;;;;;5007579;28;20390;-81
2021/12/18 10:47:45;;;;;;;26.80;9.77;;;;;;;;;;5006339;28;20029;-79
2021/12/18 10:50:26;;;;;;;28.67;9.00;;;;;;;;;;5021916;28;20022;-78
2021/12/18 10:52:56;;;;;;;34.00;7.78;;;;;;;;;;5017977;28;20064;-78
2021/12/18 10:55:30;;;;;;;21.55;6.60;;;;;;;;;;4998751;28;20033;-78
2021/12/18 10:57:56;;;;;;;31.73;7.28;;;;;;;;;;5014848;28;20026;-76
2021/12/18 11:00:35;;;;;;;28.15;6.43;;;;;;;;;;5002257;28;20029;-82
2021/12/18 11:03:18;;;;;;;30.77;7.28;;;;;;;;;;5004886;28;20147;-83
2021/12/18 11:06:01;;;;;;;35.10;5.75;;;;;;;;;;5007920;28;20080;-82
2021/12/18 11:08:27;;;;;;;29.23;5.30;;;;;;;;;;5006337;28;20029;-82
2021/12/18 11:13:38;;;;;;;25.80;5.55;;;;;;;;;;5007222;28;20038;-81
2021/12/18 11:13:48;;;;;;;30.05;7.60;;;;;;;;;;5023682;28;20026;-81
2021/12/18 11:16:15;;;;;;;25.23;5.68;;;;;;;;;;5006296;28;20539;-82
2021/12/18 11:18:41;;;;;;;32.15;6.55;;;;;;;;;;5006185;28;20613;-82
2021/12/18 11:21:08;;;;;;;30.25;6.22;;;;;;;;;;5006775;28;20057;-82
2021/12/18 11:23:44;;;;;;;36.60;6.32;;;;;;;;;;5005965;28;20053;-83
2021/12/18 11:26:12;;;;;;;34.35;5.85;;;;;;;;;;5005985;28;20029;-83
2021/12/18 11:28:42;;;;;;;30.75;5.03;;;;;;;;;;5021402;28;20030;-82
2021/12/18 11:31:08;;;;;;;27.77;5.60;;;;;;;;;;5021950;28;20056;-82
2021/12/18 11:33:34;;;;;;;25.83;5.13;;;;;;;;;;5020783;28;20030;-81
2021/12/18 11:36:03;;;;;;;28.83;5.88;;;;;;;;;;5022916;28;20029;-81
2021/12/18 11:38:30;;;;;;;25.48;6.00;;;;;;;;;;5005277;28;20033;-81
2021/12/18 11:40:56;;;;;;;37.13;5.90;;;;;;;;;;5020599;28;20029;-81
2021/12/18 11:43:30;;;;;;;33.67;6.10;;;;;;;;;;5002983;28;20502;-81
2021/12/18 11:45:56;;;;;;;37.25;6.28;;;;;;;;;;5019482;28;20108;-80
2021/12/18 11:48:22;;;;;;;44.50;12.07;;;;;;;;;;5018977;28;20382;-79
2021/12/18 11:50:48;;;;;;;38.88;7.43;;;;;;;;;;4998416;28;20117;-79
2021/12/18 11:53:16;;;;;;;29.35;6.85;;;;;;;;;;5017227;28;20036;-79
2021/12/18 11:55:51;;;;;;;32.50;6.63;;;;;;;;;;5023388;28;20018;-80
2021/12/18 11:58:17;;;;;;;40.40;7.18;;;;;;;;;;5020364;28;20033;-78
2021/12/18 12:00:45;;;;;;;38.85;6.97;;;;;;;;;;5004116;28;20125;-79
2021/12/18 12:03:12;;;;;;;31.05;6.80;;;;;;;;;;5024367;28;20101;-80
2021/12/18 12:05:38;;;;;;;42.50;7.47;;;;;;;;;;5027589;28;20033;-79
2021/12/18 12:08:20;;;;;;;36.90;6.85;;;;;;;;;;5027689;28;20463;-80
2021/12/18 12:11:15;;;;;;;33.50;6.30;;;;;;;;;;5022729;28;20045;-80
2021/12/18 12:13:51;;;;;;;46.65;7.72;;;;;;;;;;5031469;28;20033;-79
2021/12/18 12:16:17;;;;;;;31.73;5.55;;;;;;;;;;5026067;28;20033;-81
2021/12/18 12:19:02;;;;;;;41.92;6.18;;;;;;;;;;5032523;28;20048;-80
2021/12/18 12:21:38;;;;;;;37.60;6.78;;;;;;;;;;5037043;28;20030;-82
2021/12/18 12:24:04;;;;;;;33.90;6.57;;;;;;;;;;5038425;28;20010;-80
2021/12/18 12:26:30;;;;;;;30.33;5.70;;;;;;;;;;5036389;28;20065;-77
2021/12/18 12:28:56;;;;;;;35.33;5.65;;;;;;;;;;5036505;28;20028;-79
2021/12/18 12:31:23;;;;;;;37.55;5.72;;;;;;;;;;5011492;28;20045;-80
2021/12/18 12:33:50;;;;;;;41.90;6.30;;;;;;;;;;5030904;28;20444;-81
2021/12/18 12:36:23;;;;;;;32.35;6.25;;;;;;;;;;5036555;28;20041;-79
2021/12/18 12:38:53;;;;;;;35.88;6.60;;;;;;;;;;5035472;28;20010;-80
2021/12/18 12:41:32;;;;;;;31.67;6.70;;;;;;;;;;5038649;28;20036;-80
2021/12/18 12:44:00;;;;;;;34.45;5.60;;;;;;;;;;5033674;28;20060;-81
2021/12/18 12:46:27;;;;;;;33.42;6.38;;;;;;;;;;5037014;28;20042;-79
2021/12/18 12:49:04;;;;;;;33.53;5.90;;;;;;;;;;5013993;28;20034;-80
2021/12/18 12:51:49;;;;;;;38.38;6.25;;;;;;;;;;5012098;28;20483;-78
2021/12/18 12:54:47;;;;;;;33.15;6.00;;;;;;;;;;5028969;28;20022;-80
2021/12/18 12:57:22;;;;;;;42.47;6.35;;;;;;;;;;5005476;28;20121;-80
2021/12/18 13:00:09;;;;;;;47.22;6.60;;;;;;;;;;5024608;28;20029;-81
2021/12/18 13:02:36;;;;;;;35.88;5.90;;;;;;;;;;5006380;28;20034;-80
2021/12/18 13:05:04;;;;;;;31.45;6.03;;;;;;;;;;5005511;28;20485;-80
2021/12/18 13:07:30;;;;;;;35.83;7.32;;;;;;;;;;5023784;28;20030;-82
2021/12/18 13:09:56;;;;;;;35.70;6.45;;;;;;;;;;5007419;28;20053;-81
2021/12/18 13:12:22;;;;;;;49.10;14.98;;;;;;;;;;5041305;22;20049;-79
2021/12/18 13:14:48;;;;;;;39.85;7.70;;;;;;;;;;5031360;28;20037;-79
2021/12/18 13:17:24;;;;;;;33.50;6.43;;;;;;;;;;5029396;28;20034;-77
2021/12/18 13:19:54;;;;;;;36.42;5.90;;;;;;;;;;5008226;28;20045;-78
2021/12/18 13:22:24;;;;;;;41.55;7.35;;;;;;;;;;5022707;28;20030;-80
2021/12/18 13:25:04;;;;;;;41.90;7.72;;;;;;;;;;5023447;28;20022;-79
2021/12/18 13:27:30;;;;;;;36.65;6.60;;;;;;;;;;5027274;28;20034;-79
2021/12/18 13:30:13;;;;;;;40.10;6.50;;;;;;;;;;5023797;28;20045;-79
2021/12/18 13:32:59;;;;;;;42.80;7.70;;;;;;;;;;5024334;28;20025;-84
2021/12/18 13:35:27;;;;;;;35.67;5.82;;;;;;;;;;5023873;28;20030;-81
2021/12/18 13:37:56;;;;;;;48.25;7.43;;;;;;;;;;5011257;28;20032;-79
2021/12/18 13:40:22;;;;;;;40.72;7.55;;;;;;;;;;5038054;28;20044;-78
2021/12/18 13:42:48;;;;;;;38.03;6.47;;;;;;;;;;5037212;28;20029;-75
2021/12/18 13:45:14;;;;;;;34.97;5.60;;;;;;;;;;5036766;28;20041;-75
2021/12/18 13:47:47;;;;;;;33.58;5.85;;;;;;;;;;5036740;28;20026;-77
2021/12/18 13:50:16;;;;;;;40.30;5.05;;;;;;;;;;5025740;28;20093;-78
2021/12/18 13:52:54;;;;;;;44.72;6.63;;;;;;;;;;5024958;28;20026;-77
2021/12/18 13:55:35;;;;;;;34.70;6.00;;;;;;;;;;5024624;28;20113;-78
2021/12/18 13:58:04;;;;;;;33.38;7.07;;;;;;;;;;5005128;28;20133;-78
2021/12/18 14:00:49;;;;;;;35.85;7.95;;;;;;;;;;5029500;28;20041;-79
2021/12/18 14:03:28;;;;;;;36.08;7.47;;;;;;;;;;5031792;28;20051;-78
2021/12/18 14:05:55;;;;;;;45.35;7.30;;;;;;;;;;5030221;28;20030;-78
2021/12/18 14:08:21;;;;;;;43.15;7.53;;;;;;;;;;5032066;28;20085;-79
2021/12/18 14:10:50;;;;;;;34.35;6.20;;;;;;;;;;5033253;28;20045;-79
2021/12/18 14:13:16;;;;;;;32.78;7.25;;;;;;;;;;5031389;28;20037;-79
2021/12/18 14:15:42;;;;;;;43.92;6.88;;;;;;;;;;5024747;28;20018;-80
2021/12/18 14:18:26;;;;;;;37.75;6.95;;;;;;;;;;5021177;28;20057;-81
2021/12/18 14:20:52;;;;;;;41.85;7.28;;;;;;;;;;5021316;28;20029;-82
2021/12/18 14:23:18;;;;;;;32.97;6.25;;;;;;;;;;5004799;28;20141;-79
2021/12/18 14:25:44;;;;;;;33.33;6.10;;;;;;;;;;5026043;28;20033;-78
2021/12/18 14:28:21;;;;;;;38.33;5.60;;;;;;;;;;5030221;28;20014;-79
2021/12/18 14:30:47;;;;;;;39.88;6.25;;;;;;;;;;5029591;28;20030;-79
2021/12/18 14:33:17;;;;;;;38.47;6.38;;;;;;;;;;5026146;28;20032;-81
2021/12/18 14:35:53;;;;;;;33.53;6.15;;;;;;;;;;5024675;28;20498;-79
2021/12/18 14:38:22;;;;;;;34.55;5.72;;;;;;;;;;5026012;28;20036;-82
2021/12/18 14:41:15;;;;;;;35.75;7.85;;;;;;;;;;5026746;28;20022;-78
2021/12/18 14:43:56;;;;;;;32.20;6.53;;;;;;;;;;5027414;28;20072;-79
2021/12/18 14:46:22;;;;;;;43.65;6.70;;;;;;;;;;5025855;28;20030;-79
2021/12/18 14:48:48;;;;;;;27.95;5.85;;;;;;;;;;5006469;28;20105;-78
2021/12/18 14:51:24;;;;;;;40.22;6.78;;;;;;;;;;5004779;28;20475;-79
2021/12/18 14:54:00;;;;;;;41.28;7.13;;;;;;;;;;5006388;28;20475;-79
2021/12/18 14:56:25;;;;;;;44.03;8.27;;;;;;;;;;5022757;28;20456;-79
2021/12/18 14:58:51;;;;;;;48.67;9.30;;;;;;;;;;5003398;28;20044;-78
2021/12/18 15:01:19;;;;;;;47.78;8.90;;;;;;;;;;5019992;28;20083;-77
2021/12/18 15:03:46;;;;;;;44.10;8.25;;;;;;;;;;5003177;28;20125;-79
2021/12/18 15:06:22;;;;;;;44.97;7.95;;;;;;;;;;5001701;28;20034;-78
2021/12/18 15:08:52;;;;;;;40.38;7.88;;;;;;;;;;5022674;28;20049;-78
2021/12/18 15:11:37;;;;;;;52.55;7.40;;;;;;;;;;5022083;28;20041;-78
2021/12/18 15:14:03;;;;;;;36.85;7.13;;;;;;;;;;5019845;28;20529;-80
2021/12/18 15:16:29;;;;;;;43.55;7.57;;;;;;;;;;5020048;28;20026;-78
2021/12/18 15:18:56;;;;;;;54.72;7.85;;;;;;;;;;5023919;28;20526;-77
2021/12/18 15:21:22;;;;;;;42.10;7.70;;;;;;;;;;5029694;28;20080;-81
2021/12/18 15:23:48;;;;;;;36.50;7.22;;;;;;;;;;5024268;28;20041;-79
2021/12/18 15:26:15;;;;;;;40.70;8.45;;;;;;;;;;5025094;28;20060;-79